sensor_id;sensor_type;location;lat;lon;timestamp;P1;durP1;ratioP1;P2;durP2;ratioP2
81656;SDS011;71067;51.482;-0.580;2024-03-08T00:01:59;53.63;;;24.92;;
81656;SDS011;71067;51.482;-0.580;2024-03-08T00:04:24;56.92;;;26.42;;
81656;SDS011;71067;51.482;-0.580;2024-03-08T00:06:50;54.60;;;24.65;;
81656;SDS011;71067;51.482;-0.580;2024-03-08T00:09:15;56.67;;;25.20;;
81656;SDS011;71067;51.482;-0.580;2024-03-08T00:11:41;57.55;;;26.38;;
81656;SDS011;71067;51.482;-0.580;2024-03-08T00:14:06;56.63;;;26.20;;
81656;SDS011;71067;51.482;-0.580;2024-03-08T00:16:33;56.78;;;25.73;;
81656;SDS011;71067;51.482;-0.580;2024-03-08T00:18:59;64.45;;;26.88;;
81656;SDS011;71067;51.482;-0.580;2024-03-08T00:21:24;58.42;;;26.52;;
81656;SDS011;71067;51.482;-0.580;2024-03-08T00:23:49;56.65;;;25.08;;
81656;SDS011;71067;51.482;-0.580;2024-03-08T00:26:19;58.45;;;26.73;;
81656;SDS011;71067;51.482;-0.580;2024-03-08T00:28:44;58.00;;;26.35;;
81656;SDS011;71067;51.482;-0.580;2024-03-08T00:31:09;56.67;;;26.77;;
81656;SDS011;71067;51.482;-0.580;2024-03-08T00:33:35;61.30;;;29.13;;
81656;SDS011;71067;51.482;-0.580;2024-03-08T00:36:01;62.80;;;26.77;;
81656;SDS011;71067;51.482;-0.580;2024-03-08T00:38:27;58.40;;;26.20;;
81656;SDS011;71067;51.482;-0.580;2024-03-08T00:40:52;55.00;;;25.40;;
81656;SDS011;71067;51.482;-0.580;2024-03-08T00:43:18;62.15;;;26.10;;
81656;SDS011;71067;51.482;-0.580;2024-03-08T00:45:43;60.50;;;26.63;;
81656;SDS011;71067;51.482;-0.580;2024-03-08T00:48:09;61.00;;;26.30;;
81656;SDS011;71067;51.482;-0.580;2024-03-08T00:50:35;61.17;;;26.90;;
81656;SDS011;71067;51.482;-0.580;2024-03-08T00:53:01;61.65;;;27.38;;
81656;SDS011;71067;51.482;-0.580;2024-03-08T00:55:27;58.22;;;26.95;;
81656;SDS011;71067;51.482;-0.580;2024-03-08T00:57:52;65.28;;;28.67;;
81656;SDS011;71067;51.482;-0.580;2024-03-08T01:00:18;60.00;;;27.80;;
81656;SDS011;71067;51.482;-0.580;2024-03-08T01:02:46;62.15;;;27.83;;
81656;SDS011;71067;51.482;-0.580;2024-03-08T01:05:11;62.60;;;28.02;;
81656;SDS011;71067;51.482;-0.580;2024-03-08T01:07:37;57.05;;;25.30;;
81656;SDS011;71067;51.482;-0.580;2024-03-08T01:10:03;60.05;;;27.65;;
81656;SDS011;71067;51.482;-0.580;2024-03-08T01:12:29;63.35;;;28.40;;
81656;SDS011;71067;51.482;-0.580;2024-03-08T01:14:54;61.63;;;25.70;;
81656;SDS011;71067;51.482;-0.580;2024-03-08T01:17:20;60.65;;;27.20;;
81656;SDS011;71067;51.482;-0.580;2024-03-08T01:19:46;61.75;;;27.58;;
81656;SDS011;71067;51.482;-0.580;2024-03-08T01:22:12;64.55;;;29.05;;
81656;SDS011;71067;51.482;-0.580;2024-03-08T01:24:37;63.60;;;27.67;;
81656;SDS011;71067;51.482;-0.580;2024-03-08T01:27:03;59.75;;;26.73;;
81656;SDS011;71067;51.482;-0.580;2024-03-08T01:29:29;61.72;;;25.98;;
81656;SDS011;71067;51.482;-0.580;2024-03-08T01:31:57;58.03;;;28.00;;
81656;SDS011;71067;51.482;-0.580;2024-03-08T01:34:25;63.33;;;28.17;;
81656;SDS011;71067;51.482;-0.580;2024-03-08T01:36:50;59.58;;;26.30;;
81656;SDS011;71067;51.482;-0.580;2024-03-08T01:39:16;63.80;;;28.60;;
81656;SDS011;71067;51.482;-0.580;2024-03-08T01:41:42;62.17;;;27.23;;
81656;SDS011;71067;51.482;-0.580;2024-03-08T01:44:07;62.60;;;29.23;;
81656;SDS011;71067;51.482;-0.580;2024-03-08T01:46:32;61.17;;;27.73;;
81656;SDS011;71067;51.482;-0.580;2024-03-08T01:48:58;66.75;;;29.55;;
81656;SDS011;71067;51.482;-0.580;2024-03-08T01:51:25;66.47;;;27.95;;
81656;SDS011;71067;51.482;-0.580;2024-03-08T01:53:53;60.10;;;28.35;;
81656;SDS011;71067;51.482;-0.580;2024-03-08T01:56:20;61.33;;;28.02;;
81656;SDS011;71067;51.482;-0.580;2024-03-08T01:58:46;64.03;;;29.58;;
81656;SDS011;71067;51.482;-0.580;2024-03-08T02:01:12;65.13;;;27.48;;
81656;SDS011;71067;51.482;-0.580;2024-03-08T02:03:40;60.97;;;27.92;;
81656;SDS011;71067;51.482;-0.580;2024-03-08T02:06:08;74.97;;;31.65;;
81656;SDS011;71067;51.482;-0.580;2024-03-08T02:08:35;71.82;;;30.23;;
81656;SDS011;71067;51.482;-0.580;2024-03-08T02:11:01;62.95;;;28.15;;
81656;SDS011;71067;51.482;-0.580;2024-03-08T02:13:27;68.53;;;28.98;;
81656;SDS011;71067;51.482;-0.580;2024-03-08T02:18:19;65.93;;;28.27;;
81656;SDS011;71067;51.482;-0.580;2024-03-08T02:21:06;69.53;;;29.15;;
81656;SDS011;71067;51.482;-0.580;2024-03-08T02:23:33;71.07;;;30.58;;
81656;SDS011;71067;51.482;-0.580;2024-03-08T02:25:58;69.85;;;28.77;;
81656;SDS011;71067;51.482;-0.580;2024-03-08T02:28:24;70.63;;;29.67;;
81656;SDS011;71067;51.482;-0.580;2024-03-08T02:30:54;63.38;;;29.45;;
81656;SDS011;71067;51.482;-0.580;2024-03-08T02:33:20;65.45;;;29.02;;
81656;SDS011;71067;51.482;-0.580;2024-03-08T02:35:47;67.88;;;27.08;;
81656;SDS011;71067;51.482;-0.580;2024-03-08T02:38:20;66.35;;;29.10;;
81656;SDS011;71067;51.482;-0.580;2024-03-08T02:40:48;65.50;;;29.42;;
81656;SDS011;71067;51.482;-0.580;2024-03-08T02:43:15;66.28;;;27.92;;
81656;SDS011;71067;51.482;-0.580;2024-03-08T02:45:41;65.07;;;29.38;;
81656;SDS011;71067;51.482;-0.580;2024-03-08T02:48:07;72.93;;;29.50;;
81656;SDS011;71067;51.482;-0.580;2024-03-08T02:50:33;68.68;;;31.33;;
81656;SDS011;71067;51.482;-0.580;2024-03-08T02:53:00;66.07;;;28.60;;
81656;SDS011;71067;51.482;-0.580;2024-03-08T02:55:28;61.85;;;28.75;;
81656;SDS011;71067;51.482;-0.580;2024-03-08T02:57:54;65.30;;;29.23;;
81656;SDS011;71067;51.482;-0.580;2024-03-08T03:00:20;70.78;;;30.02;;
81656;SDS011;71067;51.482;-0.580;2024-03-08T03:02:46;69.28;;;31.13;;
81656;SDS011;71067;51.482;-0.580;2024-03-08T03:05:12;69.43;;;30.30;;
81656;SDS011;71067;51.482;-0.580;2024-03-08T03:07:37;69.95;;;30.55;;
81656;SDS011;71067;51.482;-0.580;2024-03-08T03:10:03;68.18;;;29.88;;
81656;SDS011;71067;51.482;-0.580;2024-03-08T03:12:29;61.05;;;28.50;;
81656;SDS011;71067;51.482;-0.580;2024-03-08T03:14:55;65.05;;;27.38;;
81656;SDS011;71067;51.482;-0.580;2024-03-08T03:17:24;66.00;;;28.90;;
81656;SDS011;71067;51.482;-0.580;2024-03-08T03:19:50;64.05;;;28.60;;
81656;SDS011;71067;51.482;-0.580;2024-03-08T03:22:19;65.72;;;29.40;;
81656;SDS011;71067;51.482;-0.580;2024-03-08T03:24:45;64.70;;;27.83;;
81656;SDS011;71067;51.482;-0.580;2024-03-08T03:27:14;64.85;;;30.17;;
81656;SDS011;71067;51.482;-0.580;2024-03-08T03:29:40;64.63;;;27.92;;
81656;SDS011;71067;51.482;-0.580;2024-03-08T03:32:13;61.97;;;28.00;;
81656;SDS011;71067;51.482;-0.580;2024-03-08T03:34:39;63.22;;;26.27;;
81656;SDS011;71067;51.482;-0.580;2024-03-08T03:37:06;63.13;;;27.63;;
81656;SDS011;71067;51.482;-0.580;2024-03-08T03:39:33;59.55;;;27.63;;
81656;SDS011;71067;51.482;-0.580;2024-03-08T03:42:13;57.40;;;25.30;;
81656;SDS011;71067;51.482;-0.580;2024-03-08T03:44:39;66.60;;;28.23;;
81656;SDS011;71067;51.482;-0.580;2024-03-08T03:47:05;59.97;;;27.73;;
81656;SDS011;71067;51.482;-0.580;2024-03-08T03:49:31;65.80;;;28.15;;
81656;SDS011;71067;51.482;-0.580;2024-03-08T03:51:58;58.75;;;26.25;;
81656;SDS011;71067;51.482;-0.580;2024-03-08T03:54:23;60.78;;;27.48;;
81656;SDS011;71067;51.482;-0.580;2024-03-08T03:56:48;59.55;;;27.33;;
81656;SDS011;71067;51.482;-0.580;2024-03-08T03:59:17;63.15;;;28.05;;
81656;SDS011;71067;51.482;-0.580;2024-03-08T04:01:43;62.55;;;27.85;;
81656;SDS011;71067;51.482;-0.580;2024-03-08T04:04:08;59.63;;;27.15;;
81656;SDS011;71067;51.482;-0.580;2024-03-08T04:06:34;52.70;;;24.77;;
81656;SDS011;71067;51.482;-0.580;2024-03-08T04:08:59;57.33;;;27.08;;
81656;SDS011;71067;51.482;-0.580;2024-03-08T04:11:24;56.57;;;28.40;;
81656;SDS011;71067;51.482;-0.580;2024-03-08T04:13:49;60.08;;;27.92;;
81656;SDS011;71067;51.482;-0.580;2024-03-08T04:16:15;65.65;;;27.48;;
81656;SDS011;71067;51.482;-0.580;2024-03-08T04:18:40;58.10;;;26.38;;
81656;SDS011;71067;51.482;-0.580;2024-03-08T04:21:06;60.10;;;25.30;;
81656;SDS011;71067;51.482;-0.580;2024-03-08T04:23:34;57.58;;;25.27;;
81656;SDS011;71067;51.482;-0.580;2024-03-08T04:26:02;63.88;;;28.30;;
81656;SDS011;71067;51.482;-0.580;2024-03-08T04:28:29;58.05;;;25.73;;
81656;SDS011;71067;51.482;-0.580;2024-03-08T04:30:54;53.33;;;24.95;;
81656;SDS011;71067;51.482;-0.580;2024-03-08T04:33:20;52.15;;;23.70;;
81656;SDS011;71067;51.482;-0.580;2024-03-08T04:35:46;53.20;;;25.60;;
81656;SDS011;71067;51.482;-0.580;2024-03-08T04:38:12;58.85;;;26.00;;
81656;SDS011;71067;51.482;-0.580;2024-03-08T04:40:37;60.00;;;27.02;;
81656;SDS011;71067;51.482;-0.580;2024-03-08T04:43:03;61.27;;;26.97;;
81656;SDS011;71067;51.482;-0.580;2024-03-08T04:45:28;56.92;;;25.15;;
81656;SDS011;71067;51.482;-0.580;2024-03-08T04:47:54;54.42;;;25.10;;
81656;SDS011;71067;51.482;-0.580;2024-03-08T04:50:19;61.58;;;26.67;;
81656;SDS011;71067;51.482;-0.580;2024-03-08T04:52:44;60.97;;;24.80;;
81656;SDS011;71067;51.482;-0.580;2024-03-08T04:55:10;62.00;;;28.10;;
81656;SDS011;71067;51.482;-0.580;2024-03-08T04:57:35;61.75;;;26.15;;
81656;SDS011;71067;51.482;-0.580;2024-03-08T05:00:03;56.25;;;25.67;;
81656;SDS011;71067;51.482;-0.580;2024-03-08T05:02:36;58.22;;;26.80;;
81656;SDS011;71067;51.482;-0.580;2024-03-08T05:05:02;62.22;;;25.45;;
81656;SDS011;71067;51.482;-0.580;2024-03-08T05:07:31;57.53;;;25.17;;
81656;SDS011;71067;51.482;-0.580;2024-03-08T05:09:57;57.40;;;24.13;;
81656;SDS011;71067;51.482;-0.580;2024-03-08T05:12:23;61.40;;;26.48;;
81656;SDS011;71067;51.482;-0.580;2024-03-08T05:14:48;61.65;;;26.10;;
81656;SDS011;71067;51.482;-0.580;2024-03-08T05:17:15;53.92;;;24.70;;
81656;SDS011;71067;51.482;-0.580;2024-03-08T05:19:40;59.03;;;24.88;;
81656;SDS011;71067;51.482;-0.580;2024-03-08T05:22:06;60.83;;;26.23;;
81656;SDS011;71067;51.482;-0.580;2024-03-08T05:24:31;59.77;;;26.07;;
81656;SDS011;71067;51.482;-0.580;2024-03-08T05:26:56;61.65;;;25.90;;
81656;SDS011;71067;51.482;-0.580;2024-03-08T05:29:22;56.38;;;24.63;;
81656;SDS011;71067;51.482;-0.580;2024-03-08T05:31:49;59.10;;;24.48;;
81656;SDS011;71067;51.482;-0.580;2024-03-08T05:34:18;58.95;;;26.73;;
81656;SDS011;71067;51.482;-0.580;2024-03-08T05:36:44;55.65;;;24.70;;
81656;SDS011;71067;51.482;-0.580;2024-03-08T05:39:11;55.38;;;25.92;;
81656;SDS011;71067;51.482;-0.580;2024-03-08T05:41:44;55.97;;;24.98;;
81656;SDS011;71067;51.482;-0.580;2024-03-08T05:44:10;59.83;;;25.73;;
81656;SDS011;71067;51.482;-0.580;2024-03-08T05:46:36;56.55;;;25.67;;
81656;SDS011;71067;51.482;-0.580;2024-03-08T05:49:02;58.50;;;24.77;;
81656;SDS011;71067;51.482;-0.580;2024-03-08T05:51:31;58.28;;;25.08;;
81656;SDS011;71067;51.482;-0.580;2024-03-08T05:53:59;59.95;;;24.92;;
81656;SDS011;71067;51.482;-0.580;2024-03-08T05:56:26;60.58;;;26.60;;
81656;SDS011;71067;51.482;-0.580;2024-03-08T05:58:51;62.47;;;25.60;;
81656;SDS011;71067;51.482;-0.580;2024-03-08T06:01:16;56.28;;;26.90;;
81656;SDS011;71067;51.482;-0.580;2024-03-08T06:03:42;57.45;;;26.85;;
81656;SDS011;71067;51.482;-0.580;2024-03-08T06:06:13;67.43;;;27.10;;
81656;SDS011;71067;51.482;-0.580;2024-03-08T06:08:39;58.13;;;25.10;;
81656;SDS011;71067;51.482;-0.580;2024-03-08T06:11:04;70.18;;;29.50;;
81656;SDS011;71067;51.482;-0.580;2024-03-08T06:13:31;63.30;;;28.55;;
81656;SDS011;71067;51.482;-0.580;2024-03-08T06:15:58;63.47;;;27.45;;
81656;SDS011;71067;51.482;-0.580;2024-03-08T06:18:24;64.57;;;28.50;;
81656;SDS011;71067;51.482;-0.580;2024-03-08T06:20:49;64.53;;;27.90;;
81656;SDS011;71067;51.482;-0.580;2024-03-08T06:23:15;60.40;;;26.40;;
81656;SDS011;71067;51.482;-0.580;2024-03-08T06:25:43;62.53;;;27.38;;
81656;SDS011;71067;51.482;-0.580;2024-03-08T06:28:11;61.03;;;27.80;;
81656;SDS011;71067;51.482;-0.580;2024-03-08T06:30:36;63.60;;;28.63;;
81656;SDS011;71067;51.482;-0.580;2024-03-08T06:33:02;69.85;;;29.20;;
81656;SDS011;71067;51.482;-0.580;2024-03-08T06:35:27;59.35;;;27.63;;
81656;SDS011;71067;51.482;-0.580;2024-03-08T06:37:53;63.23;;;27.00;;
81656;SDS011;71067;51.482;-0.580;2024-03-08T06:40:18;65.85;;;27.92;;
81656;SDS011;71067;51.482;-0.580;2024-03-08T06:42:44;67.18;;;29.73;;
81656;SDS011;71067;51.482;-0.580;2024-03-08T06:45:09;63.88;;;27.52;;
81656;SDS011;71067;51.482;-0.580;2024-03-08T06:47:41;72.47;;;30.35;;
81656;SDS011;71067;51.482;-0.580;2024-03-08T06:50:06;63.22;;;30.27;;
81656;SDS011;71067;51.482;-0.580;2024-03-08T06:52:33;65.80;;;28.52;;
81656;SDS011;71067;51.482;-0.580;2024-03-08T06:54:58;70.87;;;30.17;;
81656;SDS011;71067;51.482;-0.580;2024-03-08T06:57:26;68.57;;;29.35;;
81656;SDS011;71067;51.482;-0.580;2024-03-08T06:59:51;61.35;;;29.17;;
81656;SDS011;71067;51.482;-0.580;2024-03-08T07:02:17;63.92;;;29.00;;
81656;SDS011;71067;51.482;-0.580;2024-03-08T07:04:42;61.97;;;26.05;;
81656;SDS011;71067;51.482;-0.580;2024-03-08T07:07:08;64.27;;;28.47;;
81656;SDS011;71067;51.482;-0.580;2024-03-08T07:09:36;68.35;;;29.23;;
81656;SDS011;71067;51.482;-0.580;2024-03-08T07:12:02;65.82;;;28.35;;
81656;SDS011;71067;51.482;-0.580;2024-03-08T07:14:27;69.50;;;28.48;;
81656;SDS011;71067;51.482;-0.580;2024-03-08T07:16:52;69.32;;;28.58;;
81656;SDS011;71067;51.482;-0.580;2024-03-08T07:19:18;66.20;;;28.92;;
81656;SDS011;71067;51.482;-0.580;2024-03-08T07:21:44;63.80;;;28.55;;
81656;SDS011;71067;51.482;-0.580;2024-03-08T07:24:10;61.65;;;27.33;;
81656;SDS011;71067;51.482;-0.580;2024-03-08T07:26:42;63.25;;;28.15;;
81656;SDS011;71067;51.482;-0.580;2024-03-08T07:29:08;61.58;;;27.50;;
81656;SDS011;71067;51.482;-0.580;2024-03-08T07:31:33;64.47;;;28.83;;
81656;SDS011;71067;51.482;-0.580;2024-03-08T07:34:17;63.42;;;29.08;;
81656;SDS011;71067;51.482;-0.580;2024-03-08T07:36:43;65.07;;;28.35;;
81656;SDS011;71067;51.482;-0.580;2024-03-08T07:39:08;61.67;;;26.93;;
81656;SDS011;71067;51.482;-0.580;2024-03-08T07:41:37;67.47;;;29.20;;
81656;SDS011;71067;51.482;-0.580;2024-03-08T07:44:05;61.53;;;27.80;;
81656;SDS011;71067;51.482;-0.580;2024-03-08T07:46:31;62.13;;;27.52;;
81656;SDS011;71067;51.482;-0.580;2024-03-08T07:48:56;61.05;;;27.63;;
81656;SDS011;71067;51.482;-0.580;2024-03-08T07:51:21;61.72;;;28.13;;
81656;SDS011;71067;51.482;-0.580;2024-03-08T07:53:47;62.53;;;27.07;;
81656;SDS011;71067;51.482;-0.580;2024-03-08T07:56:12;59.17;;;26.83;;
81656;SDS011;71067;51.482;-0.580;2024-03-08T07:58:39;57.30;;;26.55;;
81656;SDS011;71067;51.482;-0.580;2024-03-08T08:01:05;61.72;;;27.48;;
81656;SDS011;71067;51.482;-0.580;2024-03-08T08:03:31;61.45;;;27.60;;
81656;SDS011;71067;51.482;-0.580;2024-03-08T08:05:57;60.97;;;27.38;;
81656;SDS011;71067;51.482;-0.580;2024-03-08T08:08:22;64.15;;;28.20;;
81656;SDS011;71067;51.482;-0.580;2024-03-08T08:10:47;59.35;;;25.50;;
81656;SDS011;71067;51.482;-0.580;2024-03-08T08:13:13;57.53;;;26.95;;
81656;SDS011;71067;51.482;-0.580;2024-03-08T08:15:38;61.25;;;27.00;;
81656;SDS011;71067;51.482;-0.580;2024-03-08T08:18:03;55.30;;;25.02;;
81656;SDS011;71067;51.482;-0.580;2024-03-08T08:20:30;52.35;;;24.05;;
81656;SDS011;71067;51.482;-0.580;2024-03-08T08:22:56;49.70;;;23.10;;
81656;SDS011;71067;51.482;-0.580;2024-03-08T08:25:22;52.63;;;25.75;;
81656;SDS011;71067;51.482;-0.580;2024-03-08T08:27:49;55.58;;;23.38;;
81656;SDS011;71067;51.482;-0.580;2024-03-08T08:30:14;55.35;;;23.80;;
81656;SDS011;71067;51.482;-0.580;2024-03-08T08:32:40;52.85;;;23.33;;
81656;SDS011;71067;51.482;-0.580;2024-03-08T08:35:07;51.67;;;23.80;;
81656;SDS011;71067;51.482;-0.580;2024-03-08T08:37:38;52.05;;;23.65;;
81656;SDS011;71067;51.482;-0.580;2024-03-08T08:40:04;52.22;;;24.27;;
81656;SDS011;71067;51.482;-0.580;2024-03-08T08:42:34;48.03;;;22.25;;
81656;SDS011;71067;51.482;-0.580;2024-03-08T08:45:00;49.13;;;23.65;;
81656;SDS011;71067;51.482;-0.580;2024-03-08T08:47:26;47.10;;;21.73;;
81656;SDS011;71067;51.482;-0.580;2024-03-08T08:49:51;52.30;;;23.70;;
81656;SDS011;71067;51.482;-0.580;2024-03-08T08:52:17;52.17;;;22.60;;
81656;SDS011;71067;51.482;-0.580;2024-03-08T08:54:42;47.17;;;23.40;;
81656;SDS011;71067;51.482;-0.580;2024-03-08T08:57:09;50.42;;;22.08;;
81656;SDS011;71067;51.482;-0.580;2024-03-08T08:59:35;48.72;;;22.67;;
81656;SDS011;71067;51.482;-0.580;2024-03-08T09:02:05;45.92;;;22.85;;
81656;SDS011;71067;51.482;-0.580;2024-03-08T09:04:31;45.58;;;22.02;;
81656;SDS011;71067;51.482;-0.580;2024-03-08T09:06:56;45.70;;;22.23;;
81656;SDS011;71067;51.482;-0.580;2024-03-08T09:09:22;42.55;;;22.80;;
81656;SDS011;71067;51.482;-0.580;2024-03-08T09:11:48;45.90;;;22.70;;
81656;SDS011;71067;51.482;-0.580;2024-03-08T09:14:14;47.30;;;22.95;;
81656;SDS011;71067;51.482;-0.580;2024-03-08T09:16:40;47.67;;;22.58;;
81656;SDS011;71067;51.482;-0.580;2024-03-08T09:19:05;45.53;;;22.13;;
81656;SDS011;71067;51.482;-0.580;2024-03-08T09:21:32;46.15;;;22.58;;
81656;SDS011;71067;51.482;-0.580;2024-03-08T09:23:57;44.08;;;21.27;;
81656;SDS011;71067;51.482;-0.580;2024-03-08T09:26:23;44.78;;;21.63;;
81656;SDS011;71067;51.482;-0.580;2024-03-08T09:28:49;40.50;;;20.38;;
81656;SDS011;71067;51.482;-0.580;2024-03-08T09:31:14;42.63;;;21.67;;
81656;SDS011;71067;51.482;-0.580;2024-03-08T09:33:40;37.70;;;20.58;;
81656;SDS011;71067;51.482;-0.580;2024-03-08T09:36:07;36.00;;;18.98;;
81656;SDS011;71067;51.482;-0.580;2024-03-08T09:38:33;40.47;;;19.15;;
81656;SDS011;71067;51.482;-0.580;2024-03-08T09:40:59;39.38;;;20.15;;
81656;SDS011;71067;51.482;-0.580;2024-03-08T09:43:26;35.72;;;20.02;;
81656;SDS011;71067;51.482;-0.580;2024-03-08T09:45:53;40.65;;;19.67;;
81656;SDS011;71067;51.482;-0.580;2024-03-08T09:48:19;35.45;;;18.33;;
81656;SDS011;71067;51.482;-0.580;2024-03-08T09:50:45;37.55;;;18.85;;
81656;SDS011;71067;51.482;-0.580;2024-03-08T09:53:11;36.92;;;20.08;;
81656;SDS011;71067;51.482;-0.580;2024-03-08T09:55:37;39.47;;;19.65;;
81656;SDS011;71067;51.482;-0.580;2024-03-08T09:58:06;39.17;;;18.13;;
81656;SDS011;71067;51.482;-0.580;2024-03-08T10:00:46;37.95;;;18.52;;
81656;SDS011;71067;51.482;-0.580;2024-03-08T10:03:12;35.60;;;17.80;;
81656;SDS011;71067;51.482;-0.580;2024-03-08T10:05:39;31.35;;;17.90;;
81656;SDS011;71067;51.482;-0.580;2024-03-08T10:08:06;36.80;;;17.58;;
81656;SDS011;71067;51.482;-0.580;2024-03-08T10:10:33;33.78;;;18.45;;
81656;SDS011;71067;51.482;-0.580;2024-03-08T10:12:59;33.70;;;18.00;;
81656;SDS011;71067;51.482;-0.580;2024-03-08T10:15:26;32.80;;;17.90;;
81656;SDS011;71067;51.482;-0.580;2024-03-08T10:17:55;37.00;;;18.30;;
81656;SDS011;71067;51.482;-0.580;2024-03-08T10:20:21;38.10;;;18.70;;
81656;SDS011;71067;51.482;-0.580;2024-03-08T10:22:46;37.23;;;17.70;;
81656;SDS011;71067;51.482;-0.580;2024-03-08T10:25:12;33.35;;;17.95;;
81656;SDS011;71067;51.482;-0.580;2024-03-08T10:27:38;32.33;;;17.90;;
81656;SDS011;71067;51.482;-0.580;2024-03-08T10:30:10;34.58;;;17.42;;
81656;SDS011;71067;51.482;-0.580;2024-03-08T10:32:40;31.20;;;16.90;;
81656;SDS011;71067;51.482;-0.580;2024-03-08T10:35:06;36.40;;;18.00;;
81656;SDS011;71067;51.482;-0.580;2024-03-08T10:37:33;34.33;;;18.10;;
81656;SDS011;71067;51.482;-0.580;2024-03-08T10:40:09;33.70;;;18.73;;
81656;SDS011;71067;51.482;-0.580;2024-03-08T10:42:41;33.08;;;18.08;;
81656;SDS011;71067;51.482;-0.580;2024-03-08T10:45:26;31.92;;;17.25;;
81656;SDS011;71067;51.482;-0.580;2024-03-08T10:48:41;35.17;;;17.77;;
81656;SDS011;71067;51.482;-0.580;2024-03-08T10:51:04;32.78;;;16.92;;
81656;SDS011;71067;51.482;-0.580;2024-03-08T10:53:30;29.92;;;16.42;;
81656;SDS011;71067;51.482;-0.580;2024-03-08T10:55:56;30.58;;;14.57;;
81656;SDS011;71067;51.482;-0.580;2024-03-08T10:58:23;29.30;;;15.48;;
81656;SDS011;71067;51.482;-0.580;2024-03-08T11:00:52;32.88;;;17.20;;
81656;SDS011;71067;51.482;-0.580;2024-03-08T11:06:11;29.90;;;14.80;;
81656;SDS011;71067;51.482;-0.580;2024-03-08T11:08:40;31.77;;;15.57;;
81656;SDS011;71067;51.482;-0.580;2024-03-08T11:11:05;26.67;;;14.48;;
81656;SDS011;71067;51.482;-0.580;2024-03-08T11:13:52;32.60;;;15.32;;
81656;SDS011;71067;51.482;-0.580;2024-03-08T11:19:00;26.25;;;13.77;;
81656;SDS011;71067;51.482;-0.580;2024-03-08T11:21:31;26.05;;;13.82;;
81656;SDS011;71067;51.482;-0.580;2024-03-08T11:24:02;29.52;;;15.77;;
81656;SDS011;71067;51.482;-0.580;2024-03-08T11:26:32;27.83;;;15.27;;
81656;SDS011;71067;51.482;-0.580;2024-03-08T11:34:33;25.70;;;14.05;;
81656;SDS011;71067;51.482;-0.580;2024-03-08T11:36:59;25.98;;;14.50;;
81656;SDS011;71067;51.482;-0.580;2024-03-08T11:39:25;27.35;;;13.85;;
81656;SDS011;71067;51.482;-0.580;2024-03-08T11:41:51;26.20;;;13.45;;
81656;SDS011;71067;51.482;-0.580;2024-03-08T11:44:17;27.20;;;15.07;;
81656;SDS011;71067;51.482;-0.580;2024-03-08T11:46:42;25.95;;;13.90;;
81656;SDS011;71067;51.482;-0.580;2024-03-08T11:49:12;24.13;;;13.23;;
81656;SDS011;71067;51.482;-0.580;2024-03-08T11:51:38;23.20;;;12.50;;
81656;SDS011;71067;51.482;-0.580;2024-03-08T11:54:04;21.67;;;12.57;;
81656;SDS011;71067;51.482;-0.580;2024-03-08T11:56:31;21.88;;;11.77;;
81656;SDS011;71067;51.482;-0.580;2024-03-08T11:58:57;22.10;;;12.30;;
81656;SDS011;71067;51.482;-0.580;2024-03-08T12:01:22;23.15;;;12.77;;
81656;SDS011;71067;51.482;-0.580;2024-03-08T12:03:55;22.77;;;11.95;;
81656;SDS011;71067;51.482;-0.580;2024-03-08T12:06:24;20.58;;;11.55;;
81656;SDS011;71067;51.482;-0.580;2024-03-08T12:08:49;23.27;;;13.20;;
81656;SDS011;71067;51.482;-0.580;2024-03-08T12:11:15;23.90;;;12.38;;
81656;SDS011;71067;51.482;-0.580;2024-03-08T12:13:43;22.02;;;11.52;;
81656;SDS011;71067;51.482;-0.580;2024-03-08T12:16:11;21.55;;;10.90;;
81656;SDS011;71067;51.482;-0.580;2024-03-08T12:18:38;18.35;;;10.55;;
81656;SDS011;71067;51.482;-0.580;2024-03-08T12:21:07;20.33;;;11.23;;
81656;SDS011;71067;51.482;-0.580;2024-03-08T12:23:34;19.30;;;10.00;;
81656;SDS011;71067;51.482;-0.580;2024-03-08T12:26:12;24.73;;;11.85;;
81656;SDS011;71067;51.482;-0.580;2024-03-08T12:28:39;21.13;;;10.98;;
81656;SDS011;71067;51.482;-0.580;2024-03-08T12:31:06;21.15;;;11.70;;
81656;SDS011;71067;51.482;-0.580;2024-03-08T12:36:17;20.95;;;11.25;;
81656;SDS011;71067;51.482;-0.580;2024-03-08T12:38:43;20.73;;;11.50;;
81656;SDS011;71067;51.482;-0.580;2024-03-08T12:41:12;18.98;;;11.07;;
81656;SDS011;71067;51.482;-0.580;2024-03-08T12:43:44;20.42;;;11.60;;
81656;SDS011;71067;51.482;-0.580;2024-03-08T12:46:22;21.08;;;11.23;;
81656;SDS011;71067;51.482;-0.580;2024-03-08T12:48:51;19.13;;;10.52;;
81656;SDS011;71067;51.482;-0.580;2024-03-08T12:51:18;20.00;;;11.18;;
81656;SDS011;71067;51.482;-0.580;2024-03-08T12:53:45;18.33;;;10.57;;
81656;SDS011;71067;51.482;-0.580;2024-03-08T12:56:11;21.20;;;11.55;;
81656;SDS011;71067;51.482;-0.580;2024-03-08T12:58:37;21.85;;;12.35;;
81656;SDS011;71067;51.482;-0.580;2024-03-08T13:01:06;21.67;;;11.68;;
81656;SDS011;71067;51.482;-0.580;2024-03-08T13:03:32;23.08;;;11.15;;
81656;SDS011;71067;51.482;-0.580;2024-03-08T13:05:59;19.42;;;11.88;;
81656;SDS011;71067;51.482;-0.580;2024-03-08T13:08:25;19.63;;;11.27;;
81656;SDS011;71067;51.482;-0.580;2024-03-08T13:10:52;20.52;;;12.88;;
81656;SDS011;71067;51.482;-0.580;2024-03-08T13:13:18;21.95;;;12.55;;
81656;SDS011;71067;51.482;-0.580;2024-03-08T13:15:44;23.70;;;13.43;;
81656;SDS011;71067;51.482;-0.580;2024-03-08T13:18:10;19.83;;;10.65;;
81656;SDS011;71067;51.482;-0.580;2024-03-08T13:20:37;21.85;;;11.25;;
81656;SDS011;71067;51.482;-0.580;2024-03-08T13:23:06;18.42;;;10.88;;
81656;SDS011;71067;51.482;-0.580;2024-03-08T13:25:33;20.52;;;10.77;;
81656;SDS011;71067;51.482;-0.580;2024-03-08T13:27:58;22.20;;;11.63;;
81656;SDS011;71067;51.482;-0.580;2024-03-08T13:30:25;23.30;;;12.60;;
81656;SDS011;71067;51.482;-0.580;2024-03-08T13:32:52;19.55;;;11.88;;
81656;SDS011;71067;51.482;-0.580;2024-03-08T13:35:18;24.27;;;12.77;;
81656;SDS011;71067;51.482;-0.580;2024-03-08T13:37:49;23.20;;;13.25;;
81656;SDS011;71067;51.482;-0.580;2024-03-08T13:40:16;25.70;;;13.70;;
81656;SDS011;71067;51.482;-0.580;2024-03-08T13:42:43;25.88;;;13.48;;
81656;SDS011;71067;51.482;-0.580;2024-03-08T13:45:09;26.65;;;13.45;;
81656;SDS011;71067;51.482;-0.580;2024-03-08T13:47:39;26.38;;;15.02;;
81656;SDS011;71067;51.482;-0.580;2024-03-08T13:50:06;21.92;;;13.60;;
81656;SDS011;71067;51.482;-0.580;2024-03-08T13:52:33;25.23;;;14.13;;
81656;SDS011;71067;51.482;-0.580;2024-03-08T13:54:59;25.65;;;14.02;;
81656;SDS011;71067;51.482;-0.580;2024-03-08T13:57:28;24.25;;;14.27;;
81656;SDS011;71067;51.482;-0.580;2024-03-08T13:59:53;25.92;;;14.82;;
81656;SDS011;71067;51.482;-0.580;2024-03-08T14:02:19;24.80;;;14.65;;
81656;SDS011;71067;51.482;-0.580;2024-03-08T14:04:47;24.10;;;14.10;;
81656;SDS011;71067;51.482;-0.580;2024-03-08T14:07:14;29.85;;;16.27;;
81656;SDS011;71067;51.482;-0.580;2024-03-08T14:09:41;24.10;;;15.23;;
81656;SDS011;71067;51.482;-0.580;2024-03-08T14:12:08;27.20;;;15.23;;
81656;SDS011;71067;51.482;-0.580;2024-03-08T14:14:34;25.90;;;14.93;;
81656;SDS011;71067;51.482;-0.580;2024-03-08T14:17:00;27.95;;;16.38;;
81656;SDS011;71067;51.482;-0.580;2024-03-08T14:19:27;28.67;;;16.88;;
81656;SDS011;71067;51.482;-0.580;2024-03-08T14:21:53;25.15;;;16.00;;
81656;SDS011;71067;51.482;-0.580;2024-03-08T14:24:19;27.13;;;15.50;;